sensor_id;sensor_type;location;lat;lon;timestamp;temperature;humidity
12726;DHT22;6427;49.754;6.106;2024-02-26T00:01:21;8.90;99.90
12726;DHT22;6427;49.754;6.106;2024-02-26T00:03:49;8.80;99.90
12726;DHT22;6427;49.754;6.106;2024-02-26T00:06:17;8.70;99.90
12726;DHT22;6427;49.754;6.106;2024-02-26T00:08:44;8.60;99.90
12726;DHT22;6427;49.754;6.106;2024-02-26T00:11:13;8.50;99.90
12726;DHT22;6427;49.754;6.106;2024-02-26T00:13:40;8.50;99.90
12726;DHT22;6427;49.754;6.106;2024-02-26T00:16:08;8.50;99.90
12726;DHT22;6427;49.754;6.106;2024-02-26T00:18:35;8.50;99.90
12726;DHT22;6427;49.754;6.106;2024-02-26T00:21:03;8.40;99.90
12726;DHT22;6427;49.754;6.106;2024-02-26T00:23:31;8.40;99.90
12726;DHT22;6427;49.754;6.106;2024-02-26T00:25:59;8.30;99.90
12726;DHT22;6427;49.754;6.106;2024-02-26T00:28:26;8.30;99.90
12726;DHT22;6427;49.754;6.106;2024-02-26T00:30:54;8.20;99.90
12726;DHT22;6427;49.754;6.106;2024-02-26T00:33:22;8.20;99.90
12726;DHT22;6427;49.754;6.106;2024-02-26T00:35:50;8.20;99.90
12726;DHT22;6427;49.754;6.106;2024-02-26T00:38:18;8.50;99.90
12726;DHT22;6427;49.754;6.106;2024-02-26T00:40:45;8.70;99.90
12726;DHT22;6427;49.754;6.106;2024-02-26T00:43:13;8.60;99.90
12726;DHT22;6427;49.754;6.106;2024-02-26T00:45:41;8.60;99.90
12726;DHT22;6427;49.754;6.106;2024-02-26T00:48:10;8.50;99.90
12726;DHT22;6427;49.754;6.106;2024-02-26T00:50:37;8.40;99.90
12726;DHT22;6427;49.754;6.106;2024-02-26T00:53:05;8.30;99.90
12726;DHT22;6427;49.754;6.106;2024-02-26T00:55:32;8.20;99.90
12726;DHT22;6427;49.754;6.106;2024-02-26T00:58:00;8.10;99.90
12726;DHT22;6427;49.754;6.106;2024-02-26T01:00:27;8.00;99.90
12726;DHT22;6427;49.754;6.106;2024-02-26T01:02:55;8.00;99.90
12726;DHT22;6427;49.754;6.106;2024-02-26T01:05:23;7.90;99.90
12726;DHT22;6427;49.754;6.106;2024-02-26T01:07:50;7.80;99.90
12726;DHT22;6427;49.754;6.106;2024-02-26T01:10:18;7.80;99.90
12726;DHT22;6427;49.754;6.106;2024-02-26T01:12:45;7.80;99.90
12726;DHT22;6427;49.754;6.106;2024-02-26T01:15:13;7.80;99.90
12726;DHT22;6427;49.754;6.106;2024-02-26T01:17:41;7.70;99.90
12726;DHT22;6427;49.754;6.106;2024-02-26T01:20:09;7.70;99.90
12726;DHT22;6427;49.754;6.106;2024-02-26T01:22:37;7.70;99.90
12726;DHT22;6427;49.754;6.106;2024-02-26T01:25:05;8.00;99.90
12726;DHT22;6427;49.754;6.106;2024-02-26T01:27:32;7.90;99.90
12726;DHT22;6427;49.754;6.106;2024-02-26T01:30:00;7.80;99.90
12726;DHT22;6427;49.754;6.106;2024-02-26T01:32:28;7.70;99.90
12726;DHT22;6427;49.754;6.106;2024-02-26T01:34:56;7.70;99.90
12726;DHT22;6427;49.754;6.106;2024-02-26T01:37:24;7.60;99.90
12726;DHT22;6427;49.754;6.106;2024-02-26T01:39:52;7.60;99.90
12726;DHT22;6427;49.754;6.106;2024-02-26T01:42:19;7.60;99.90
12726;DHT22;6427;49.754;6.106;2024-02-26T01:44:47;7.60;99.90
12726;DHT22;6427;49.754;6.106;2024-02-26T01:47:15;7.60;99.90
12726;DHT22;6427;49.754;6.106;2024-02-26T01:49:43;7.60;99.90
12726;DHT22;6427;49.754;6.106;2024-02-26T01:52:11;7.50;99.90
12726;DHT22;6427;49.754;6.106;2024-02-26T01:54:39;7.60;99.90
12726;DHT22;6427;49.754;6.106;2024-02-26T01:57:06;7.80;99.90
12726;DHT22;6427;49.754;6.106;2024-02-26T01:59:34;7.80;99.90
12726;DHT22;6427;49.754;6.106;2024-02-26T02:02:03;7.70;99.90
12726;DHT22;6427;49.754;6.106;2024-02-26T02:04:31;7.60;99.90
12726;DHT22;6427;49.754;6.106;2024-02-26T02:06:58;7.60;99.90
12726;DHT22;6427;49.754;6.106;2024-02-26T02:09:27;7.50;99.90
12726;DHT22;6427;49.754;6.106;2024-02-26T02:11:54;7.40;99.90
12726;DHT22;6427;49.754;6.106;2024-02-26T02:14:22;7.70;99.90
12726;DHT22;6427;49.754;6.106;2024-02-26T02:16:51;7.70;99.90
12726;DHT22;6427;49.754;6.106;2024-02-26T02:19:18;7.70;99.90
12726;DHT22;6427;49.754;6.106;2024-02-26T02:21:47;7.60;99.90
12726;DHT22;6427;49.754;6.106;2024-02-26T02:24:14;7.60;99.90
12726;DHT22;6427;49.754;6.106;2024-02-26T02:26:43;7.80;99.90
12726;DHT22;6427;49.754;6.106;2024-02-26T02:29:10;7.80;99.90
12726;DHT22;6427;49.754;6.106;2024-02-26T02:31:38;7.80;99.90
12726;DHT22;6427;49.754;6.106;2024-02-26T02:34:06;7.70;99.90
12726;DHT22;6427;49.754;6.106;2024-02-26T02:36:33;7.60;99.90
12726;DHT22;6427;49.754;6.106;2024-02-26T02:39:01;7.60;99.90
12726;DHT22;6427;49.754;6.106;2024-02-26T02:41:29;7.50;99.90
12726;DHT22;6427;49.754;6.106;2024-02-26T02:43:57;7.50;99.90
12726;DHT22;6427;49.754;6.106;2024-02-26T02:46:25;7.40;99.90
12726;DHT22;6427;49.754;6.106;2024-02-26T02:48:53;7.40;99.90
12726;DHT22;6427;49.754;6.106;2024-02-26T02:51:20;7.40;99.90
12726;DHT22;6427;49.754;6.106;2024-02-26T02:53:48;7.70;99.90
12726;DHT22;6427;49.754;6.106;2024-02-26T02:56:15;8.00;99.90
12726;DHT22;6427;49.754;6.106;2024-02-26T02:58:43;7.90;99.90
12726;DHT22;6427;49.754;6.106;2024-02-26T03:01:10;7.70;99.90
12726;DHT22;6427;49.754;6.106;2024-02-26T03:03:38;8.00;99.90
12726;DHT22;6427;49.754;6.106;2024-02-26T03:06:06;7.80;99.90
12726;DHT22;6427;49.754;6.106;2024-02-26T03:08:33;7.70;99.90
12726;DHT22;6427;49.754;6.106;2024-02-26T03:11:01;8.00;99.90
12726;DHT22;6427;49.754;6.106;2024-02-26T03:13:28;7.90;99.90
12726;DHT22;6427;49.754;6.106;2024-02-26T03:15:56;7.70;99.90
12726;DHT22;6427;49.754;6.106;2024-02-26T03:18:24;8.00;99.90
12726;DHT22;6427;49.754;6.106;2024-02-26T03:20:51;8.20;99.90
12726;DHT22;6427;49.754;6.106;2024-02-26T03:23:20;8.00;99.90
12726;DHT22;6427;49.754;6.106;2024-02-26T03:25:47;7.90;99.90
12726;DHT22;6427;49.754;6.106;2024-02-26T03:28:15;7.90;99.90
12726;DHT22;6427;49.754;6.106;2024-02-26T03:30:43;7.80;99.90
12726;DHT22;6427;49.754;6.106;2024-02-26T03:33:11;7.70;99.90
12726;DHT22;6427;49.754;6.106;2024-02-26T03:35:38;7.70;99.90
12726;DHT22;6427;49.754;6.106;2024-02-26T03:38:06;7.70;99.90
12726;DHT22;6427;49.754;6.106;2024-02-26T03:40:33;8.10;99.90
12726;DHT22;6427;49.754;6.106;2024-02-26T03:43:01;8.00;99.90
12726;DHT22;6427;49.754;6.106;2024-02-26T03:45:29;7.90;99.90
12726;DHT22;6427;49.754;6.106;2024-02-26T03:47:57;7.80;99.90
12726;DHT22;6427;49.754;6.106;2024-02-26T03:50:24;7.80;99.90
12726;DHT22;6427;49.754;6.106;2024-02-26T03:52:53;7.70;99.90
12726;DHT22;6427;49.754;6.106;2024-02-26T03:55:21;7.80;99.90
12726;DHT22;6427;49.754;6.106;2024-02-26T03:57:48;7.80;99.90
12726;DHT22;6427;49.754;6.106;2024-02-26T04:00:16;7.80;99.90
12726;DHT22;6427;49.754;6.106;2024-02-26T04:02:43;7.80;99.90
12726;DHT22;6427;49.754;6.106;2024-02-26T04:05:11;7.80;99.90
12726;DHT22;6427;49.754;6.106;2024-02-26T04:07:39;7.80;99.90
12726;DHT22;6427;49.754;6.106;2024-02-26T04:10:10;7.80;99.90
12726;DHT22;6427;49.754;6.106;2024-02-26T04:12:40;7.80;99.90
12726;DHT22;6427;49.754;6.106;2024-02-26T04:15:08;7.80;99.90
12726;DHT22;6427;49.754;6.106;2024-02-26T04:17:36;7.80;99.90
12726;DHT22;6427;49.754;6.106;2024-02-26T04:20:03;8.20;99.90
12726;DHT22;6427;49.754;6.106;2024-02-26T04:22:32;8.40;99.90
12726;DHT22;6427;49.754;6.106;2024-02-26T04:24:59;8.40;99.90
12726;DHT22;6427;49.754;6.106;2024-02-26T04:27:27;8.30;99.90
12726;DHT22;6427;49.754;6.106;2024-02-26T04:29:54;8.50;99.90
12726;DHT22;6427;49.754;6.106;2024-02-26T04:32:22;8.40;99.90
12726;DHT22;6427;49.754;6.106;2024-02-26T04:34:49;8.30;99.90
12726;DHT22;6427;49.754;6.106;2024-02-26T04:37:17;8.20;99.90
12726;DHT22;6427;49.754;6.106;2024-02-26T04:39:45;8.20;99.90
12726;DHT22;6427;49.754;6.106;2024-02-26T04:42:12;8.20;99.90
12726;DHT22;6427;49.754;6.106;2024-02-26T04:44:40;8.10;99.90
12726;DHT22;6427;49.754;6.106;2024-02-26T04:47:07;8.10;99.90
12726;DHT22;6427;49.754;6.106;2024-02-26T04:49:35;8.10;99.90
12726;DHT22;6427;49.754;6.106;2024-02-26T04:52:02;8.10;99.90
12726;DHT22;6427;49.754;6.106;2024-02-26T04:54:30;8.10;99.90
12726;DHT22;6427;49.754;6.106;2024-02-26T04:56:58;8.10;99.90
12726;DHT22;6427;49.754;6.106;2024-02-26T04:59:25;8.00;99.90
12726;DHT22;6427;49.754;6.106;2024-02-26T05:01:53;8.10;99.90
12726;DHT22;6427;49.754;6.106;2024-02-26T05:04:21;8.70;99.90
12726;DHT22;6427;49.754;6.106;2024-02-26T05:06:49;8.70;99.90
12726;DHT22;6427;49.754;6.106;2024-02-26T05:09:16;8.50;99.90
12726;DHT22;6427;49.754;6.106;2024-02-26T05:11:44;8.40;99.90
12726;DHT22;6427;49.754;6.106;2024-02-26T05:14:13;8.30;99.90
12726;DHT22;6427;49.754;6.106;2024-02-26T05:16:41;8.30;99.90
12726;DHT22;6427;49.754;6.106;2024-02-26T05:19:08;8.20;99.90
12726;DHT22;6427;49.754;6.106;2024-02-26T05:21:37;8.20;99.90
12726;DHT22;6427;49.754;6.106;2024-02-26T05:24:05;8.20;99.90
12726;DHT22;6427;49.754;6.106;2024-02-26T05:26:34;8.20;99.90
12726;DHT22;6427;49.754;6.106;2024-02-26T05:29:01;8.10;99.90
12726;DHT22;6427;49.754;6.106;2024-02-26T05:31:29;8.10;99.90
12726;DHT22;6427;49.754;6.106;2024-02-26T05:33:57;8.40;99.90
12726;DHT22;6427;49.754;6.106;2024-02-26T05:36:25;8.40;99.90
12726;DHT22;6427;49.754;6.106;2024-02-26T05:38:53;8.30;99.90
12726;DHT22;6427;49.754;6.106;2024-02-26T05:41:21;8.30;99.90
12726;DHT22;6427;49.754;6.106;2024-02-26T05:43:52;8.30;99.90
12726;DHT22;6427;49.754;6.106;2024-02-26T05:46:19;8.30;99.90
12726;DHT22;6427;49.754;6.106;2024-02-26T05:48:50;8.30;99.90
12726;DHT22;6427;49.754;6.106;2024-02-26T05:51:14;8.60;99.90
12726;DHT22;6427;49.754;6.106;2024-02-26T05:53:42;8.50;99.90
12726;DHT22;6427;49.754;6.106;2024-02-26T05:56:10;8.70;99.90
12726;DHT22;6427;49.754;6.106;2024-02-26T05:58:38;8.70;99.90
12726;DHT22;6427;49.754;6.106;2024-02-26T06:01:06;8.90;99.90
12726;DHT22;6427;49.754;6.106;2024-02-26T06:03:34;8.90;99.90
12726;DHT22;6427;49.754;6.106;2024-02-26T06:06:02;8.70;99.90
12726;DHT22;6427;49.754;6.106;2024-02-26T06:08:30;8.60;99.90
12726;DHT22;6427;49.754;6.106;2024-02-26T06:10:57;8.60;99.90
12726;DHT22;6427;49.754;6.106;2024-02-26T06:13:26;8.90;99.90
12726;DHT22;6427;49.754;6.106;2024-02-26T06:15:53;8.80;99.90
12726;DHT22;6427;49.754;6.106;2024-02-26T06:18:21;8.80;99.90
12726;DHT22;6427;49.754;6.106;2024-02-26T06:20:48;8.70;99.90
12726;DHT22;6427;49.754;6.106;2024-02-26T06:23:16;9.00;99.90
12726;DHT22;6427;49.754;6.106;2024-02-26T06:25:44;8.90;99.90
12726;DHT22;6427;49.754;6.106;2024-02-26T06:28:11;8.70;99.90
12726;DHT22;6427;49.754;6.106;2024-02-26T06:30:39;8.60;99.90
12726;DHT22;6427;49.754;6.106;2024-02-26T06:33:06;8.60;99.90
12726;DHT22;6427;49.754;6.106;2024-02-26T06:35:34;8.50;99.90
12726;DHT22;6427;49.754;6.106;2024-02-26T06:38:02;8.80;99.90
12726;DHT22;6427;49.754;6.106;2024-02-26T06:40:30;8.80;99.90
12726;DHT22;6427;49.754;6.106;2024-02-26T06:42:57;8.70;99.90
12726;DHT22;6427;49.754;6.106;2024-02-26T06:45:25;8.60;99.90
12726;DHT22;6427;49.754;6.106;2024-02-26T06:47:53;8.60;99.90
12726;DHT22;6427;49.754;6.106;2024-02-26T06:50:21;8.90;99.90
12726;DHT22;6427;49.754;6.106;2024-02-26T06:52:49;8.90;99.90
12726;DHT22;6427;49.754;6.106;2024-02-26T06:55:16;8.80;99.90
12726;DHT22;6427;49.754;6.106;2024-02-26T06:57:44;8.70;99.90
12726;DHT22;6427;49.754;6.106;2024-02-26T07:00:11;8.60;99.90
12726;DHT22;6427;49.754;6.106;2024-02-26T07:02:43;8.60;99.90
12726;DHT22;6427;49.754;6.106;2024-02-26T07:05:11;8.50;99.90
12726;DHT22;6427;49.754;6.106;2024-02-26T07:07:39;8.50;99.90
12726;DHT22;6427;49.754;6.106;2024-02-26T07:10:07;8.50;99.90
12726;DHT22;6427;49.754;6.106;2024-02-26T07:12:34;8.50;99.90
12726;DHT22;6427;49.754;6.106;2024-02-26T07:15:02;8.80;99.90
12726;DHT22;6427;49.754;6.106;2024-02-26T07:17:30;8.80;99.90
12726;DHT22;6427;49.754;6.106;2024-02-26T07:19:58;8.70;99.90
12726;DHT22;6427;49.754;6.106;2024-02-26T07:22:26;8.70;99.90
12726;DHT22;6427;49.754;6.106;2024-02-26T07:24:53;8.70;99.90
12726;DHT22;6427;49.754;6.106;2024-02-26T07:27:21;8.60;99.90
12726;DHT22;6427;49.754;6.106;2024-02-26T07:29:48;9.00;99.90
12726;DHT22;6427;49.754;6.106;2024-02-26T07:32:16;8.90;99.90
12726;DHT22;6427;49.754;6.106;2024-02-26T07:34:44;8.90;99.90
12726;DHT22;6427;49.754;6.106;2024-02-26T07:37:11;8.80;99.90
12726;DHT22;6427;49.754;6.106;2024-02-26T07:39:39;8.80;99.90
12726;DHT22;6427;49.754;6.106;2024-02-26T07:42:06;8.80;99.90
12726;DHT22;6427;49.754;6.106;2024-02-26T07:44:34;9.10;99.90
12726;DHT22;6427;49.754;6.106;2024-02-26T07:47:02;9.10;99.90
12726;DHT22;6427;49.754;6.106;2024-02-26T07:49:30;8.90;99.90
12726;DHT22;6427;49.754;6.106;2024-02-26T07:51:57;8.80;99.90
12726;DHT22;6427;49.754;6.106;2024-02-26T07:54:25;8.80;99.90
12726;DHT22;6427;49.754;6.106;2024-02-26T07:56:53;8.80;99.90
12726;DHT22;6427;49.754;6.106;2024-02-26T07:59:20;8.70;99.90
12726;DHT22;6427;49.754;6.106;2024-02-26T08:01:51;8.70;99.90
12726;DHT22;6427;49.754;6.106;2024-02-26T08:04:18;8.60;99.90
12726;DHT22;6427;49.754;6.106;2024-02-26T08:06:46;8.60;99.90
12726;DHT22;6427;49.754;6.106;2024-02-26T08:09:13;8.60;99.90
12726;DHT22;6427;49.754;6.106;2024-02-26T08:11:42;8.60;99.90
12726;DHT22;6427;49.754;6.106;2024-02-26T08:14:09;8.60;99.90
12726;DHT22;6427;49.754;6.106;2024-02-26T08:16:37;8.60;99.90
12726;DHT22;6427;49.754;6.106;2024-02-26T08:19:05;8.90;99.90
12726;DHT22;6427;49.754;6.106;2024-02-26T08:21:32;8.90;99.90
12726;DHT22;6427;49.754;6.106;2024-02-26T08:24:00;8.80;99.90
12726;DHT22;6427;49.754;6.106;2024-02-26T08:26:27;8.80;99.90
12726;DHT22;6427;49.754;6.106;2024-02-26T08:28:55;9.10;99.90
12726;DHT22;6427;49.754;6.106;2024-02-26T08:31:22;9.00;99.90
12726;DHT22;6427;49.754;6.106;2024-02-26T08:33:50;9.00;99.90
12726;DHT22;6427;49.754;6.106;2024-02-26T08:36:18;8.90;99.90
12726;DHT22;6427;49.754;6.106;2024-02-26T08:38:45;8.90;99.90
12726;DHT22;6427;49.754;6.106;2024-02-26T08:41:13;8.90;99.90
12726;DHT22;6427;49.754;6.106;2024-02-26T08:43:40;8.90;99.90
12726;DHT22;6427;49.754;6.106;2024-02-26T08:46:08;8.90;99.90
12726;DHT22;6427;49.754;6.106;2024-02-26T08:48:36;9.00;99.90
12726;DHT22;6427;49.754;6.106;2024-02-26T08:51:07;9.00;99.90
12726;DHT22;6427;49.754;6.106;2024-02-26T08:53:35;9.00;99.90
12726;DHT22;6427;49.754;6.106;2024-02-26T08:56:02;9.10;99.90
12726;DHT22;6427;49.754;6.106;2024-02-26T08:58:30;9.50;99.90
12726;DHT22;6427;49.754;6.106;2024-02-26T09:00:58;9.50;99.90
12726;DHT22;6427;49.754;6.106;2024-02-26T09:03:26;9.40;99.90
12726;DHT22;6427;49.754;6.106;2024-02-26T09:05:53;9.50;99.90
12726;DHT22;6427;49.754;6.106;2024-02-26T09:08:22;9.50;99.90
12726;DHT22;6427;49.754;6.106;2024-02-26T09:10:49;9.50;99.90
12726;DHT22;6427;49.754;6.106;2024-02-26T09:13:18;9.50;99.90
12726;DHT22;6427;49.754;6.106;2024-02-26T09:15:45;9.50;99.90
12726;DHT22;6427;49.754;6.106;2024-02-26T09:18:13;9.50;99.90
12726;DHT22;6427;49.754;6.106;2024-02-26T09:20:41;9.50;99.90
12726;DHT22;6427;49.754;6.106;2024-02-26T09:23:08;9.50;99.90
12726;DHT22;6427;49.754;6.106;2024-02-26T09:25:36;9.50;99.90
12726;DHT22;6427;49.754;6.106;2024-02-26T09:28:03;9.80;99.90
12726;DHT22;6427;49.754;6.106;2024-02-26T09:30:31;9.80;99.90
12726;DHT22;6427;49.754;6.106;2024-02-26T09:32:58;9.70;99.90
12726;DHT22;6427;49.754;6.106;2024-02-26T09:35:26;9.70;99.90
12726;DHT22;6427;49.754;6.106;2024-02-26T09:37:54;10.40;99.90
12726;DHT22;6427;49.754;6.106;2024-02-26T09:40:23;10.30;99.90
12726;DHT22;6427;49.754;6.106;2024-02-26T09:42:51;10.30;99.90
12726;DHT22;6427;49.754;6.106;2024-02-26T09:45:18;10.30;99.90
12726;DHT22;6427;49.754;6.106;2024-02-26T09:47:46;10.60;99.90
12726;DHT22;6427;49.754;6.106;2024-02-26T09:50:13;10.80;99.90
12726;DHT22;6427;49.754;6.106;2024-02-26T09:52:41;10.70;99.90
12726;DHT22;6427;49.754;6.106;2024-02-26T09:55:08;10.60;99.90
12726;DHT22;6427;49.754;6.106;2024-02-26T09:57:39;10.90;99.90
12726;DHT22;6427;49.754;6.106;2024-02-26T10:00:06;10.80;99.90
12726;DHT22;6427;49.754;6.106;2024-02-26T10:02:35;10.80;99.90
12726;DHT22;6427;49.754;6.106;2024-02-26T10:05:02;11.10;99.90
12726;DHT22;6427;49.754;6.106;2024-02-26T10:07:30;11.10;99.90
12726;DHT22;6427;49.754;6.106;2024-02-26T10:09:58;11.10;99.90
12726;DHT22;6427;49.754;6.106;2024-02-26T10:12:25;11.40;99.90
12726;DHT22;6427;49.754;6.106;2024-02-26T10:14:53;11.30;99.90
12726;DHT22;6427;49.754;6.106;2024-02-26T10:17:20;11.20;99.90
12726;DHT22;6427;49.754;6.106;2024-02-26T10:19:48;11.40;99.90
12726;DHT22;6427;49.754;6.106;2024-02-26T10:22:16;11.20;99.90
12726;DHT22;6427;49.754;6.106;2024-02-26T10:24:43;11.00;99.90
12726;DHT22;6427;49.754;6.106;2024-02-26T10:27:11;10.90;99.90
12726;DHT22;6427;49.754;6.106;2024-02-26T10:29:38;10.80;99.90
12726;DHT22;6427;49.754;6.106;2024-02-26T10:32:06;10.70;99.90
12726;DHT22;6427;49.754;6.106;2024-02-26T10:34:34;10.90;99.90
12726;DHT22;6427;49.754;6.106;2024-02-26T10:37:02;11.20;99.90
12726;DHT22;6427;49.754;6.106;2024-02-26T10:39:30;11.20;99.90
12726;DHT22;6427;49.754;6.106;2024-02-26T10:41:59;11.00;99.90
12726;DHT22;6427;49.754;6.106;2024-02-26T10:44:26;11.00;99.90
12726;DHT22;6427;49.754;6.106;2024-02-26T10:46:55;11.00;99.90
12726;DHT22;6427;49.754;6.106;2024-02-26T10:49:23;11.00;99.90
12726;DHT22;6427;49.754;6.106;2024-02-26T10:51:56;11.00;99.90
12726;DHT22;6427;49.754;6.106;2024-02-26T10:54:25;11.10;99.90
12726;DHT22;6427;49.754;6.106;2024-02-26T10:56:52;11.20;99.90
12726;DHT22;6427;49.754;6.106;2024-02-26T10:59:20;11.20;99.90
12726;DHT22;6427;49.754;6.106;2024-02-26T11:01:51;11.20;99.90
12726;DHT22;6427;49.754;6.106;2024-02-26T11:04:18;11.60;99.90
12726;DHT22;6427;49.754;6.106;2024-02-26T11:06:46;11.60;99.90
12726;DHT22;6427;49.754;6.106;2024-02-26T11:09:14;11.60;99.90
12726;DHT22;6427;49.754;6.106;2024-02-26T11:11:41;11.70;99.90
12726;DHT22;6427;49.754;6.106;2024-02-26T11:14:09;11.70;99.90
12726;DHT22;6427;49.754;6.106;2024-02-26T11:16:36;12.00;99.90
12726;DHT22;6427;49.754;6.106;2024-02-26T11:19:04;11.90;99.90
12726;DHT22;6427;49.754;6.106;2024-02-26T11:21:32;11.90;99.90
12726;DHT22;6427;49.754;6.106;2024-02-26T11:24:15;11.90;99.90
12726;DHT22;6427;49.754;6.106;2024-02-26T11:26:50;11.90;99.90
12726;DHT22;6427;49.754;6.106;2024-02-26T11:29:19;12.20;99.90
12726;DHT22;6427;49.754;6.106;2024-02-26T11:31:45;12.10;99.90
12726;DHT22;6427;49.754;6.106;2024-02-26T11:34:13;12.10;99.90
12726;DHT22;6427;49.754;6.106;2024-02-26T11:36:40;12.00;99.90
12726;DHT22;6427;49.754;6.106;2024-02-26T11:39:08;12.30;99.90
12726;DHT22;6427;49.754;6.106;2024-02-26T11:41:36;12.20;99.90
12726;DHT22;6427;49.754;6.106;2024-02-26T11:44:03;12.20;99.90
12726;DHT22;6427;49.754;6.106;2024-02-26T11:46:43;12.50;99.90
12726;DHT22;6427;49.754;6.106;2024-02-26T11:49:03;12.90;99.90
12726;DHT22;6427;49.754;6.106;2024-02-26T11:51:34;12.70;99.90
12726;DHT22;6427;49.754;6.106;2024-02-26T11:54:02;12.50;99.90
12726;DHT22;6427;49.754;6.106;2024-02-26T11:56:29;12.50;99.90
12726;DHT22;6427;49.754;6.106;2024-02-26T11:58:57;12.30;99.90
12726;DHT22;6427;49.754;6.106;2024-02-26T12:01:44;12.50;99.90
12726;DHT22;6427;49.754;6.106;2024-02-26T12:04:26;12.20;99.90
12726;DHT22;6427;49.754;6.106;2024-02-26T12:06:57;11.80;99.90
12726;DHT22;6427;49.754;6.106;2024-02-26T12:09:34;11.80;99.90
12726;DHT22;6427;49.754;6.106;2024-02-26T12:12:03;11.70;99.90
12726;DHT22;6427;49.754;6.106;2024-02-26T12:14:32;11.70;99.90
12726;DHT22;6427;49.754;6.106;2024-02-26T12:16:57;11.60;99.90
12726;DHT22;6427;49.754;6.106;2024-02-26T12:19:25;11.60;99.90
12726;DHT22;6427;49.754;6.106;2024-02-26T12:21:53;11.90;99.90
12726;DHT22;6427;49.754;6.106;2024-02-26T12:24:20;11.90;99.90
12726;DHT22;6427;49.754;6.106;2024-02-26T12:26:48;11.80;99.90
12726;DHT22;6427;49.754;6.106;2024-02-26T12:29:17;12.20;99.90
12726;DHT22;6427;49.754;6.106;2024-02-26T12:31:44;12.10;99.90
12726;DHT22;6427;49.754;6.106;2024-02-26T12:34:13;12.40;99.90
12726;DHT22;6427;49.754;6.106;2024-02-26T12:36:40;12.40;99.90
12726;DHT22;6427;49.754;6.106;2024-02-26T12:39:08;12.30;99.90
12726;DHT22;6427;49.754;6.106;2024-02-26T12:41:37;12.10;99.90
12726;DHT22;6427;49.754;6.106;2024-02-26T12:44:05;12.10;99.90
12726;DHT22;6427;49.754;6.106;2024-02-26T12:46:32;12.00;99.90
12726;DHT22;6427;49.754;6.106;2024-02-26T12:49:01;12.30;99.90
12726;DHT22;6427;49.754;6.106;2024-02-26T12:51:29;12.30;99.90
12726;DHT22;6427;49.754;6.106;2024-02-26T12:53:57;12.30;99.90
12726;DHT22;6427;49.754;6.106;2024-02-26T12:56:25;12.20;99.90
12726;DHT22;6427;49.754;6.106;2024-02-26T12:58:53;12.10;99.90
12726;DHT22;6427;49.754;6.106;2024-02-26T13:01:21;12.10;99.90
12726;DHT22;6427;49.754;6.106;2024-02-26T13:03:48;12.10;99.90
12726;DHT22;6427;49.754;6.106;2024-02-26T13:06:16;12.10;99.90
12726;DHT22;6427;49.754;6.106;2024-02-26T13:08:43;12.10;99.90
12726;DHT22;6427;49.754;6.106;2024-02-26T13:11:11;12.10;99.90
12726;DHT22;6427;49.754;6.106;2024-02-26T13:13:39;12.10;99.90
12726;DHT22;6427;49.754;6.106;2024-02-26T13:16:10;12.40;99.90
12726;DHT22;6427;49.754;6.106;2024-02-26T13:18:35;12.40;99.90
12726;DHT22;6427;49.754;6.106;2024-02-26T13:21:15;12.60;99.90
12726;DHT22;6427;49.754;6.106;2024-02-26T13:23:43;12.50;99.90
12726;DHT22;6427;49.754;6.106;2024-02-26T13:26:11;12.30;99.90
12726;DHT22;6427;49.754;6.106;2024-02-26T13:28:38;12.20;99.90
12726;DHT22;6427;49.754;6.106;2024-02-26T13:31:07;12.10;99.90
12726;DHT22;6427;49.754;6.106;2024-02-26T13:33:35;12.00;99.90
12726;DHT22;6427;49.754;6.106;2024-02-26T13:36:03;12.00;99.90
12726;DHT22;6427;49.754;6.106;2024-02-26T13:38:30;11.90;99.90
12726;DHT22;6427;49.754;6.106;2024-02-26T13:40:58;12.20;99.90
12726;DHT22;6427;49.754;6.106;2024-02-26T13:43:26;12.10;99.90
12726;DHT22;6427;49.754;6.106;2024-02-26T13:45:53;11.90;99.90
12726;DHT22;6427;49.754;6.106;2024-02-26T13:48:21;11.90;99.90
12726;DHT22;6427;49.754;6.106;2024-02-26T13:50:49;12.10;99.90
12726;DHT22;6427;49.754;6.106;2024-02-26T13:53:16;12.00;99.90
12726;DHT22;6427;49.754;6.106;2024-02-26T13:55:44;11.80;99.90
12726;DHT22;6427;49.754;6.106;2024-02-26T13:58:12;11.80;99.90
12726;DHT22;6427;49.754;6.106;2024-02-26T14:00:40;11.80;99.90
12726;DHT22;6427;49.754;6.106;2024-02-26T14:03:07;12.00;99.90
12726;DHT22;6427;49.754;6.106;2024-02-26T14:05:35;12.30;99.90
12726;DHT22;6427;49.754;6.106;2024-02-26T14:08:03;12.00;99.90
12726;DHT22;6427;49.754;6.106;2024-02-26T14:10:31;12.00;99.90
12726;DHT22;6427;49.754;6.106;2024-02-26T14:12:59;12.20;99.90
12726;DHT22;6427;49.754;6.106;2024-02-26T14:15:27;12.20;99.90
12726;DHT22;6427;49.754;6.106;2024-02-26T14:17:55;12.10;99.90
12726;DHT22;6427;49.754;6.106;2024-02-26T14:20:22;12.30;99.90
12726;DHT22;6427;49.754;6.106;2024-02-26T14:22:50;12.20;99.90
12726;DHT22;6427;49.754;6.106;2024-02-26T14:25:18;12.00;99.90
12726;DHT22;6427;49.754;6.106;2024-02-26T14:27:49;11.90;99.90
12726;DHT22;6427;49.754;6.106;2024-02-26T14:30:14;12.20;99.90
12726;DHT22;6427;49.754;6.106;2024-02-26T14:32:42;12.10;99.90
12726;DHT22;6427;49.754;6.106;2024-02-26T14:35:10;12.10;99.90
12726;DHT22;6427;49.754;6.106;2024-02-26T14:37:37;12.00;99.90
12726;DHT22;6427;49.754;6.106;2024-02-26T14:40:05;12.20;99.90
12726;DHT22;6427;49.754;6.106;2024-02-26T14:42:33;12.40;99.90
12726;DHT22;6427;49.754;6.106;2024-02-26T14:45:01;12.10;99.90
12726;DHT22;6427;49.754;6.106;2024-02-26T14:47:29;12.10;99.90
12726;DHT22;6427;49.754;6.106;2024-02-26T14:49:56;12.00;99.90
12726;DHT22;6427;49.754;6.106;2024-02-26T14:52:24;11.90;99.90
12726;DHT22;6427;49.754;6.106;2024-02-26T14:54:52;11.90;99.90
12726;DHT22;6427;49.754;6.106;2024-02-26T14:57:20;11.80;99.90
12726;DHT22;6427;49.754;6.106;2024-02-26T14:59:48;12.10;99.90
12726;DHT22;6427;49.754;6.106;2024-02-26T15:02:16;12.10;99.90
12726;DHT22;6427;49.754;6.106;2024-02-26T15:04:44;12.00;99.90
12726;DHT22;6427;49.754;6.106;2024-02-26T15:07:11;11.90;99.90
12726;DHT22;6427;49.754;6.106;2024-02-26T15:09:39;11.90;99.90
12726;DHT22;6427;49.754;6.106;2024-02-26T15:12:06;11.80;99.90
12726;DHT22;6427;49.754;6.106;2024-02-26T15:14:34;11.80;99.90
12726;DHT22;6427;49.754;6.106;2024-02-26T15:17:01;11.80;99.90
12726;DHT22;6427;49.754;6.106;2024-02-26T15:19:30;11.70;99.90
12726;DHT22;6427;49.754;6.106;2024-02-26T15:21:57;11.70;99.90
12726;DHT22;6427;49.754;6.106;2024-02-26T15:24:25;11.70;99.90
12726;DHT22;6427;49.754;6.106;2024-02-26T15:26:53;11.70;99.90
12726;DHT22;6427;49.754;6.106;2024-02-26T15:29:20;11.60;99.90
12726;DHT22;6427;49.754;6.106;2024-02-26T15:31:48;11.60;99.90
12726;DHT22;6427;49.754;6.106;2024-02-26T15:34:15;11.50;99.90
12726;DHT22;6427;49.754;6.106;2024-02-26T15:36:43;11.50;99.90
12726;DHT22;6427;49.754;6.106;2024-02-26T15:39:11;11.40;99.90
12726;DHT22;6427;49.754;6.106;2024-02-26T15:41:38;11.40;99.90
12726;DHT22;6427;49.754;6.106;2024-02-26T15:44:06;11.40;99.90
12726;DHT22;6427;49.754;6.106;2024-02-26T15:46:38;11.40;99.90
12726;DHT22;6427;49.754;6.106;2024-02-26T15:49:01;11.70;99.90
12726;DHT22;6427;49.754;6.106;2024-02-26T15:51:29;11.70;99.90
12726;DHT22;6427;49.754;6.106;2024-02-26T15:53:56;11.60;99.90
12726;DHT22;6427;49.754;6.106;2024-02-26T15:56:24;11.60;99.90
12726;DHT22;6427;49.754;6.106;2024-02-26T15:58:51;11.60;99.90